Time;durP1;ratioP1;P1;durP2;ratioP2;P2;SDS_P1;SDS_P2;PMS_P1;PMS_P2;Temp;Humidity;BMP_temperature;BMP_pressure;BME280_temperature;BME280_humidity;BME280_pressure;Samples;Min_cycle;Max_cycle;Signal;HPM_P1;HPM_P2
2021/12/20 00:01:35;;;;;;;20.90;4.78;;;-2.20;99.90;;;;;;5074400;28;20029;-72
2021/12/20 00:04:00;;;;;;;29.40;4.80;;;-2.20;99.90;;;;;;5074451;28;20124;-72
2021/12/20 00:06:26;;;;;;;16.73;3.63;;;-2.20;99.90;;;;;;5074209;28;20099;-72
2021/12/20 00:08:52;;;;;;;21.27;5.45;;;-2.20;99.90;;;;;;5076798;28;20144;-72
2021/12/20 00:11:18;;;;;;;36.20;6.60;;;-2.20;99.90;;;;;;5072911;28;20373;-72
2021/12/20 00:13:44;;;;;;;33.25;6.78;;;-2.20;99.90;;;;;;5060496;28;20024;-72
2021/12/20 00:16:10;;;;;;;53.97;11.30;;;-2.20;99.90;;;;;;5088789;28;20031;-74
2021/12/20 00:18:35;;;;;;;46.33;10.90;;;-2.10;99.90;;;;;;5082962;28;20074;-72
2021/12/20 00:21:01;;;;;;;47.03;10.32;;;-2.10;99.90;;;;;;5084107;28;20085;-72
2021/12/20 00:23:26;;;;;;;49.50;11.07;;;-2.00;99.90;;;;;;5083258;28;20027;-72
2021/12/20 00:25:52;;;;;;;54.85;12.05;;;-1.90;99.90;;;;;;5079956;28;20388;-72
2021/12/20 00:28:19;;;;;;;40.60;8.63;;;-1.80;99.90;;;;;;5083297;28;20020;-72
2021/12/20 00:30:46;;;;;;;33.05;8.45;;;-1.90;99.90;;;;;;5082971;28;20865;-73
2021/12/20 00:33:12;;;;;;;28.95;7.25;;;-1.90;99.90;;;;;;5084727;28;20111;-72
2021/12/20 00:35:38;;;;;;;30.73;6.80;;;-2.00;99.90;;;;;;5085749;28;20047;-72
2021/12/20 00:40:48;;;;;;;28.50;5.00;;;-2.00;99.90;;;;;;5080116;28;20039;-72
2021/12/20 00:43:14;;;;;;;30.48;5.75;;;-2.10;99.90;;;;;;5084700;28;20035;-73
2021/12/20 00:45:41;;;;;;;29.42;3.97;;;-2.10;99.90;;;;;;5082031;28;20028;-72
2021/12/20 00:48:07;;;;;;;36.53;4.40;;;-2.10;99.90;;;;;;5086103;28;20479;-72
2021/12/20 00:50:33;;;;;;;20.42;3.70;;;-2.00;99.90;;;;;;5080243;28;20039;-72
2021/12/20 00:52:59;;;;;;;27.80;3.95;;;-2.00;99.90;;;;;;5084701;28;20038;-71
2021/12/20 00:55:26;;;;;;;18.38;4.97;;;-2.00;99.90;;;;;;5084494;28;20032;-72
2021/12/20 00:57:53;;;;;;;21.77;4.40;;;-1.90;99.90;;;;;;5084065;28;20542;-71
2021/12/20 01:00:24;;;;;;;21.13;3.45;;;-1.90;99.90;;;;;;5082303;28;20028;-71
2021/12/20 01:02:51;;;;;;;17.05;2.67;;;-1.90;99.90;;;;;;5072550;28;20034;-71
2021/12/20 01:05:17;;;;;;;13.57;2.40;;;-1.90;99.90;;;;;;5083730;28;20514;-71
2021/12/20 01:07:43;;;;;;;14.02;3.03;;;-2.00;99.90;;;;;;5072816;28;20058;-73
2021/12/20 01:10:09;;;;;;;22.23;3.10;;;-2.00;99.90;;;;;;5081018;28;20017;-72
2021/12/20 01:12:49;;;;;;;16.02;2.85;;;-2.00;99.90;;;;;;5056107;28;20484;-72
2021/12/20 01:15:22;;;;;;;18.02;3.10;;;-2.10;99.90;;;;;;5055258;28;20035;-72
2021/12/20 01:17:49;;;;;;;16.08;3.53;;;-2.20;99.90;;;;;;5073425;28;20016;-72
2021/12/20 01:20:15;;;;;;;17.27;3.55;;;-2.10;99.90;;;;;;5073045;28;20024;-72
2021/12/20 01:22:45;;;;;;;21.70;3.10;;;-2.10;99.90;;;;;;5075444;28;20157;-72
2021/12/20 01:25:12;;;;;;;16.00;3.42;;;-2.10;99.90;;;;;;5084349;28;20086;-72
2021/12/20 01:27:38;;;;;;;17.95;5.60;;;-2.20;99.90;;;;;;5093239;28;20020;-72
2021/12/20 01:30:06;;;;;;;13.38;2.75;;;-2.30;99.90;;;;;;5093325;28;20024;-72
2021/12/20 01:32:31;;;;;;;15.50;3.55;;;-2.30;99.90;;;;;;5094501;28;20020;-72
2021/12/20 01:34:57;;;;;;;31.05;7.35;;;-2.20;99.90;;;;;;5097468;28;20387;-72
2021/12/20 01:37:22;;;;;;;30.88;8.00;;;-2.10;99.90;;;;;;5097598;28;20028;-72
2021/12/20 01:39:48;;;;;;;22.27;8.23;;;-2.10;99.90;;;;;;5079152;28;20031;-72
2021/12/20 01:42:18;;;;;;;35.13;9.40;;;-2.20;99.90;;;;;;5097190;28;20020;-72
2021/12/20 01:44:44;;;;;;;34.47;10.60;;;-2.30;99.90;;;;;;5097496;28;20024;-72
2021/12/20 01:47:10;;;;;;;29.52;7.68;;;-2.30;99.90;;;;;;5097123;28;20103;-72
2021/12/20 01:49:44;;;;;;;32.97;7.57;;;-2.40;99.90;;;;;;5079015;28;20059;-72
2021/12/20 01:52:14;;;;;;;31.15;8.85;;;-2.50;99.90;;;;;;5096961;28;20030;-72
2021/12/20 01:54:40;;;;;;;25.20;8.30;;;-2.50;99.90;;;;;;5097142;28;20440;-72
2021/12/20 01:57:06;;;;;;;38.17;7.57;;;-2.60;99.90;;;;;;5097329;28;20464;-72
2021/12/20 01:59:31;;;;;;;19.13;6.32;;;-2.60;99.90;;;;;;5096984;28;20035;-72
2021/12/20 02:01:57;;;;;;;22.15;5.40;;;-2.60;99.90;;;;;;5096884;28;20024;-72
2021/12/20 02:04:23;;;;;;;19.98;5.22;;;-2.50;99.90;;;;;;5097193;28;20035;-72
2021/12/20 02:06:50;;;;;;;32.05;6.10;;;-2.30;99.90;;;;;;5096823;28;20103;-72
2021/12/20 02:09:18;;;;;;;24.13;4.68;;;-2.20;99.90;;;;;;5078645;28;20024;-72
2021/12/20 02:11:47;;;;;;;22.92;6.10;;;-2.20;99.90;;;;;;5096960;28;20020;-72
2021/12/20 02:14:13;;;;;;;22.60;4.20;;;-2.20;99.90;;;;;;5094617;28;20399;-72
2021/12/20 02:16:40;;;;;;;23.98;3.88;;;-2.30;99.90;;;;;;5080249;28;20040;-72
2021/12/20 02:19:09;;;;;;;18.95;4.88;;;-2.40;99.90;;;;;;5076555;28;20107;-72
2021/12/20 02:21:35;;;;;;;25.42;3.75;;;-2.40;99.90;;;;;;5076554;28;20030;-72
2021/12/20 02:24:01;;;;;;;26.05;4.68;;;-2.40;99.90;;;;;;5058337;28;20078;-72
2021/12/20 02:26:26;;;;;;;25.50;3.92;;;-2.40;99.90;;;;;;5078790;28;20091;-72
2021/12/20 02:28:54;;;;;;;16.45;2.95;;;-2.50;99.90;;;;;;5078470;28;20549;-72
2021/12/20 02:37:01;;;;;;;30.35;3.83;;;-2.60;99.90;;;;;;5091164;28;20031;-72
2021/12/20 02:39:27;;;;;;;13.55;3.58;;;-2.60;99.90;;;;;;5076024;28;20079;-72
2021/12/20 02:41:52;;;;;;;34.83;3.92;;;-2.60;99.90;;;;;;5075960;28;20483;-72
2021/12/20 02:44:20;;;;;;;16.20;3.75;;;-2.50;99.90;;;;;;5077147;28;20055;-72
2021/12/20 02:49:18;;;;;;;12.98;3.35;;;-2.40;99.90;;;;;;5096393;28;20031;-72
2021/12/20 02:51:47;;;;;;;16.42;3.22;;;-2.50;99.90;;;;;;5062350;28;20024;-72
2021/12/20 02:54:13;;;;;;;15.80;3.65;;;-2.60;99.90;;;;;;5075405;28;20064;-72
2021/12/20 02:56:41;;;;;;;17.23;3.35;;;-2.60;99.90;;;;;;5085288;28;20028;-72
2021/12/20 02:59:07;;;;;;;8.27;3.55;;;-2.70;99.90;;;;;;5077749;28;20059;-72
2021/12/20 03:01:34;;;;;;;7.63;3.17;;;-2.80;99.90;;;;;;5095833;28;20076;-72
2021/12/20 03:04:00;;;;;;;18.75;3.25;;;-2.80;99.90;;;;;;5095743;28;20035;-72
2021/12/20 03:06:48;;;;;;;15.15;3.55;;;-2.80;99.90;;;;;;5095696;28;20020;-72
2021/12/20 03:09:17;;;;;;;16.00;2.97;;;-2.90;99.90;;;;;;5095373;28;20066;-72
2021/12/20 03:11:47;;;;;;;15.02;3.70;;;-2.90;99.90;;;;;;5077489;28;20020;-72
2021/12/20 03:14:25;;;;;;;13.77;2.90;;;-2.90;99.90;;;;;;5095858;28;20027;-72
2021/12/20 03:16:51;;;;;;;11.25;2.92;;;-3.00;99.90;;;;;;5095906;28;20472;-72
2021/12/20 03:19:16;;;;;;;11.98;3.13;;;-2.90;99.90;;;;;;5095494;28;20035;-72
2021/12/20 03:21:42;;;;;;;17.77;3.63;;;-2.90;99.90;;;;;;5095367;28;20032;-72
2021/12/20 03:24:08;;;;;;;17.63;2.70;;;-2.90;99.90;;;;;;5095407;28;20030;-72
2021/12/20 03:26:34;;;;;;;14.13;2.58;;;-2.90;99.90;;;;;;5095541;28;20395;-72
2021/12/20 03:29:00;;;;;;;8.82;2.65;;;-2.90;99.90;;;;;;5095305;28;20032;-72
2021/12/20 03:31:26;;;;;;;10.38;3.42;;;-2.90;99.90;;;;;;5077110;28;20020;-72
2021/12/20 03:33:52;;;;;;;12.75;4.38;;;-2.90;99.90;;;;;;5077006;28;20027;-72
2021/12/20 03:36:18;;;;;;;9.50;2.72;;;-2.90;99.90;;;;;;5095175;28;20395;-72
2021/12/20 03:38:43;;;;;;;23.88;3.72;;;-2.90;99.90;;;;;;5095109;28;20028;-72
2021/12/20 03:41:09;;;;;;;11.75;2.67;;;-2.90;99.90;;;;;;5095075;28;20064;-72
2021/12/20 03:43:35;;;;;;;22.40;3.08;;;-2.80;99.90;;;;;;5094945;28;20074;-72
2021/12/20 03:46:02;;;;;;;21.40;3.17;;;-2.90;99.90;;;;;;5094823;28;20052;-72
2021/12/20 03:48:28;;;;;;;17.15;2.85;;;-2.80;99.90;;;;;;5101799;28;20029;-72
2021/12/20 03:50:56;;;;;;;9.45;2.47;;;-2.90;99.90;;;;;;5104181;28;20117;-72
2021/12/20 03:53:22;;;;;;;13.02;2.50;;;-2.90;99.90;;;;;;5115008;28;20028;-72
2021/12/20 03:55:48;;;;;;;13.88;3.58;;;-2.90;99.90;;;;;;5115251;28;20019;-72
2021/12/20 03:58:14;;;;;;;17.65;2.53;;;-2.90;99.90;;;;;;5115101;28;20042;-72
2021/12/20 04:00:40;;;;;;;12.48;2.67;;;-2.90;99.90;;;;;;5115368;28;20057;-72
2021/12/20 04:03:11;;;;;;;12.00;3.28;;;-2.90;99.90;;;;;;5115110;28;20038;-72
2021/12/20 04:05:37;;;;;;;16.05;2.72;;;-2.90;99.90;;;;;;5115217;28;20031;-72
2021/12/20 04:08:02;;;;;;;11.50;3.33;;;-2.90;99.90;;;;;;5114927;28;20027;-72
2021/12/20 04:10:28;;;;;;;20.98;2.78;;;-2.90;99.90;;;;;;5114892;28;20023;-72
2021/12/20 04:12:54;;;;;;;9.13;2.72;;;-2.90;99.90;;;;;;5114800;28;20019;-71
2021/12/20 04:15:19;;;;;;;17.35;3.10;;;-2.90;99.90;;;;;;5114783;28;20494;-72
2021/12/20 04:17:45;;;;;;;23.85;3.75;;;-2.90;99.90;;;;;;5114742;28;20439;-71
2021/12/20 04:20:11;;;;;;;16.90;4.40;;;-3.00;99.90;;;;;;5114700;28;20023;-72
2021/12/20 04:22:36;;;;;;;14.98;4.38;;;-3.00;99.90;;;;;;5114565;28;20028;-72
2021/12/20 04:25:03;;;;;;;22.40;4.85;;;-2.90;99.90;;;;;;5114636;28;20140;-71
2021/12/20 04:27:28;;;;;;;14.85;3.97;;;-3.00;99.90;;;;;;5090563;28;20032;-71
2021/12/20 04:29:55;;;;;;;11.88;3.33;;;-3.00;99.90;;;;;;5089771;28;20403;-72
2021/12/20 04:32:21;;;;;;;11.55;2.88;;;-3.10;99.90;;;;;;5085861;28;20020;-72
2021/12/20 04:34:46;;;;;;;9.98;2.97;;;-3.10;99.90;;;;;;5080350;28;20419;-72
2021/12/20 04:37:13;;;;;;;19.65;3.22;;;-3.10;99.90;;;;;;5094569;28;20117;-71
2021/12/20 04:39:39;;;;;;;16.25;3.05;;;-3.10;99.90;;;;;;5094273;28;20052;-71
2021/12/20 04:42:04;;;;;;;8.75;3.30;;;-3.10;99.90;;;;;;5093867;28;20085;-72
2021/12/20 04:44:30;;;;;;;9.45;2.38;;;-3.10;99.90;;;;;;5093250;28;20128;-72
2021/12/20 04:46:56;;;;;;;7.75;2.20;;;-3.10;99.90;;;;;;5073772;28;20028;-72
2021/12/20 04:49:24;;;;;;;17.30;3.13;;;-3.10;99.90;;;;;;5073577;28;20099;-72
2021/12/20 04:51:51;;;;;;;10.73;3.47;;;-3.10;99.90;;;;;;5073716;28;20016;-72
2021/12/20 04:54:17;;;;;;;17.77;3.65;;;-3.10;99.90;;;;;;5073378;28;20115;-72
2021/12/20 04:56:42;;;;;;;7.50;3.05;;;-3.10;99.90;;;;;;5074037;28;20107;-72
2021/12/20 04:59:08;;;;;;;18.85;3.50;;;-3.10;99.90;;;;;;5073447;28;20028;-72
2021/12/20 05:01:34;;;;;;;10.52;2.70;;;-3.00;99.90;;;;;;5078644;28;20044;-72
2021/12/20 05:04:00;;;;;;;9.48;2.97;;;-3.10;99.90;;;;;;5075444;28;20024;-72
2021/12/20 05:06:25;;;;;;;9.77;3.10;;;-3.20;99.90;;;;;;5093532;28;20020;-72
2021/12/20 05:08:54;;;;;;;12.93;2.80;;;-3.20;99.90;;;;;;5093202;28;20391;-72
2021/12/20 05:11:20;;;;;;;12.25;3.25;;;-3.20;99.90;;;;;;5055224;28;20048;-72
2021/12/20 05:13:46;;;;;;;14.10;2.65;;;-3.20;99.90;;;;;;5073163;28;20013;-72
2021/12/20 05:16:12;;;;;;;18.13;3.55;;;-3.00;99.90;;;;;;5073212;28;20120;-72
2021/12/20 05:18:37;;;;;;;17.95;4.22;;;-2.90;99.90;;;;;;5073155;28;20024;-71
2021/12/20 05:21:03;;;;;;;16.35;3.72;;;-2.70;99.90;;;;;;5073299;28;20036;-71
2021/12/20 05:23:28;;;;;;;17.30;3.10;;;-2.50;99.90;;;;;;5073089;28;20028;-72
2021/12/20 05:25:55;;;;;;;14.80;3.45;;;-2.40;99.90;;;;;;5055061;28;20031;-72
2021/12/20 05:28:21;;;;;;;14.38;3.10;;;-2.20;99.90;;;;;;5080533;28;20522;-71
2021/12/20 05:30:50;;;;;;;26.67;5.53;;;-2.20;99.90;;;;;;5089619;28;20032;-71
2021/12/20 05:33:15;;;;;;;24.02;7.72;;;-2.20;99.90;;;;;;5077274;28;20062;-71
2021/12/20 05:35:41;;;;;;;15.90;4.50;;;-2.10;99.90;;;;;;5073034;28;20028;-71
2021/12/20 05:38:06;;;;;;;21.90;4.60;;;-2.00;99.90;;;;;;5073066;28;20530;-71
2021/12/20 05:40:32;;;;;;;19.85;4.20;;;-2.10;99.90;;;;;;5073249;28;20035;-71
2021/12/20 05:42:58;;;;;;;9.27;3.05;;;-2.20;99.90;;;;;;5081707;28;20084;-71
2021/12/20 05:45:23;;;;;;;16.95;2.88;;;-2.30;99.90;;;;;;5093066;28;20054;-71
2021/12/20 05:47:49;;;;;;;14.80;3.60;;;-2.50;99.90;;;;;;5080740;28;20448;-71
2021/12/20 05:50:18;;;;;;;12.02;3.30;;;-2.50;99.90;;;;;;5073398;28;20017;-72
2021/12/20 05:52:43;;;;;;;12.27;3.22;;;-2.50;99.90;;;;;;5097162;23;20113;-68
2021/12/20 05:55:10;;;;;;;10.27;3.35;;;-2.60;99.90;;;;;;5093328;28;20044;-69
2021/12/20 05:57:36;;;;;;;24.10;3.72;;;-2.60;99.90;;;;;;5075567;28;20112;-69
2021/12/20 06:00:07;;;;;;;17.60;5.43;;;-2.60;99.90;;;;;;5073033;28;20488;-69
2021/12/20 06:02:33;;;;;;;22.60;10.38;;;-2.50;99.90;;;;;;5085383;28;20133;-69
2021/12/20 06:04:58;;;;;;;42.15;16.80;;;-2.40;99.90;;;;;;5092929;28;20070;-69
2021/12/20 06:07:24;;;;;;;45.30;18.38;;;-2.40;99.90;;;;;;5084157;28;20043;-69
2021/12/20 06:09:49;;;;;;;51.88;24.33;;;-2.50;99.90;;;;;;5072932;28;20020;-69
2021/12/20 06:12:15;;;;;;;87.05;34.67;;;-2.60;99.90;;;;;;5072610;28;20021;-69
2021/12/20 06:14:41;;;;;;;42.72;16.85;;;-2.60;99.90;;;;;;5092357;28;20046;-69
2021/12/20 06:17:07;;;;;;;25.50;7.95;;;-2.60;99.90;;;;;;5092812;28;20039;-69
2021/12/20 06:19:33;;;;;;;21.63;7.13;;;-2.50;99.90;;;;;;5083976;28;20480;-69
2021/12/20 06:21:59;;;;;;;12.25;3.90;;;-2.40;99.90;;;;;;5076287;28;20031;-69
2021/12/20 06:24:25;;;;;;;22.73;4.82;;;-2.40;99.90;;;;;;5078550;28;20111;-69
2021/12/20 06:26:51;;;;;;;9.15;3.53;;;-2.40;99.90;;;;;;5079884;28;20023;-69
2021/12/20 06:29:18;;;;;;;14.57;3.33;;;-2.30;99.90;;;;;;5090792;28;20021;-69
2021/12/20 06:31:43;;;;;;;19.92;3.33;;;-2.40;99.90;;;;;;5076146;28;20029;-69
2021/12/20 06:34:10;;;;;;;17.48;3.38;;;-2.40;99.90;;;;;;5078578;28;20486;-69
2021/12/20 06:36:36;;;;;;;14.60;3.33;;;-2.50;99.90;;;;;;5076370;28;20025;-69
2021/12/20 06:39:03;;;;;;;16.02;3.40;;;-2.50;99.90;;;;;;5076353;28;20361;-69
2021/12/20 06:41:29;;;;;;;11.10;2.92;;;-2.50;99.90;;;;;;5078033;28;20097;-69
2021/12/20 06:43:54;;;;;;;14.15;2.92;;;-2.50;99.90;;;;;;5077970;28;20024;-69
2021/12/20 06:46:21;;;;;;;10.60;3.60;;;-2.50;99.90;;;;;;5077956;28;20074;-69
2021/12/20 06:48:47;;;;;;;10.20;3.83;;;-2.50;99.90;;;;;;5096696;28;20512;-69
2021/12/20 06:51:12;;;;;;;14.52;3.70;;;-2.50;99.90;;;;;;5079278;28;20028;-69
2021/12/20 06:53:38;;;;;;;17.55;3.83;;;-2.50;99.90;;;;;;5075606;28;20166;-69
2021/12/20 06:56:04;;;;;;;18.88;2.63;;;-2.70;99.90;;;;;;5085660;28;20016;-69
2021/12/20 06:58:29;;;;;;;15.70;3.33;;;-2.70;99.90;;;;;;5096113;28;20024;-69
2021/12/20 07:00:55;;;;;;;9.73;2.53;;;-2.70;99.90;;;;;;5087013;28;20490;-69
2021/12/20 07:03:22;;;;;;;9.60;2.95;;;-2.60;99.90;;;;;;5075271;28;20146;-69
2021/12/20 07:05:48;;;;;;;15.95;2.53;;;-2.70;99.90;;;;;;5077303;28;20059;-69
2021/12/20 07:08:14;;;;;;;24.50;3.17;;;-2.70;99.90;;;;;;5087079;28;20062;-69
2021/12/20 07:10:40;;;;;;;19.23;3.60;;;-2.70;99.90;;;;;;5095406;28;20031;-69
2021/12/20 07:13:07;;;;;;;16.70;3.33;;;-2.80;99.90;;;;;;5095809;28;20043;-69
2021/12/20 07:15:33;;;;;;;10.00;3.35;;;-2.80;99.90;;;;;;5095851;28;20051;-69
2021/12/20 07:17:59;;;;;;;14.90;2.50;;;-2.80;99.90;;;;;;5095556;28;20419;-69
2021/12/20 07:20:25;;;;;;;9.85;2.90;;;-2.80;99.90;;;;;;5095810;28;20063;-69
2021/12/20 07:22:51;;;;;;;14.05;3.63;;;-2.70;99.90;;;;;;5095409;28;20529;-69
2021/12/20 07:25:18;;;;;;;14.02;3.08;;;-2.70;99.90;;;;;;5095584;28;20035;-69
2021/12/20 07:27:46;;;;;;;13.65;3.45;;;-2.70;99.90;;;;;;5095367;28;20036;-69
2021/12/20 07:30:11;;;;;;;12.07;2.30;;;-2.60;99.90;;;;;;5095344;28;20417;-69
2021/12/20 07:32:37;;;;;;;8.43;2.70;;;-2.70;99.90;;;;;;5095469;28;20055;-69
2021/12/20 07:35:03;;;;;;;13.70;3.67;;;-2.70;99.90;;;;;;5095204;28;20476;-69
2021/12/20 07:37:28;;;;;;;9.88;3.00;;;-2.60;99.90;;;;;;5095180;28;20032;-69
2021/12/20 07:39:54;;;;;;;18.42;2.97;;;-2.50;99.90;;;;;;5095098;28;20035;-69
2021/12/20 07:42:20;;;;;;;13.20;3.60;;;-2.50;99.90;;;;;;5095063;28;20028;-69
2021/12/20 07:44:45;;;;;;;12.65;3.88;;;-2.60;99.90;;;;;;5094963;28;20028;-69
2021/12/20 07:47:11;;;;;;;22.58;3.63;;;-2.60;99.90;;;;;;5095195;28;20034;-69
2021/12/20 07:49:37;;;;;;;17.95;3.15;;;-2.60;99.90;;;;;;5094943;28;20024;-69
2021/12/20 07:52:04;;;;;;;6.68;2.45;;;-2.60;99.90;;;;;;5094903;28;20027;-69
2021/12/20 07:54:30;;;;;;;15.02;2.83;;;-2.60;99.90;;;;;;5094669;28;20107;-69
2021/12/20 07:56:56;;;;;;;11.30;2.83;;;-2.70;99.90;;;;;;5095051;28;20400;-69
2021/12/20 07:59:21;;;;;;;17.88;3.45;;;-2.70;99.90;;;;;;5094987;28;20099;-69
2021/12/20 08:01:48;;;;;;;17.40;3.78;;;-2.40;99.90;;;;;;5094641;28;20544;-69
2021/12/20 08:04:14;;;;;;;16.85;3.58;;;-2.20;99.90;;;;;;5091270;28;20391;-69
2021/12/20 08:06:42;;;;;;;23.08;4.03;;;-2.20;99.90;;;;;;5094536;28;20024;-69
2021/12/20 08:09:08;;;;;;;15.68;4.20;;;-2.10;99.90;;;;;;5076456;28;20028;-69
2021/12/20 08:11:35;;;;;;;11.85;3.30;;;-2.10;99.90;;;;;;5094536;28;20024;-69
2021/12/20 08:14:01;;;;;;;6.35;3.20;;;-2.10;99.90;;;;;;5094420;28;20033;-69
2021/12/20 08:16:27;;;;;;;13.27;3.38;;;-2.10;99.90;;;;;;5094465;28;20187;-69
2021/12/20 08:18:52;;;;;;;19.42;4.75;;;-2.00;99.90;;;;;;5094414;28;20024;-69
2021/12/20 08:21:18;;;;;;;13.07;3.25;;;-2.10;99.90;;;;;;5094702;28;20028;-69
2021/12/20 08:23:43;;;;;;;26.27;4.03;;;-2.10;99.90;;;;;;5094247;28;20128;-69
2021/12/20 08:26:09;;;;;;;12.77;3.95;;;-2.10;99.90;;;;;;5094157;28;20115;-69
2021/12/20 08:28:35;;;;;;;13.48;3.78;;;-2.10;99.90;;;;;;5094208;28;20031;-69
2021/12/20 08:31:03;;;;;;;14.20;4.65;;;-2.10;99.90;;;;;;5094192;28;20043;-69
2021/12/20 08:33:29;;;;;;;17.40;5.28;;;-1.90;99.90;;;;;;5094259;28;20031;-69
2021/12/20 08:35:54;;;;;;;22.25;6.95;;;-1.80;99.90;;;;;;5096600;28;20020;-69
2021/12/20 08:38:20;;;;;;;11.68;4.07;;;-1.60;99.90;;;;;;5093999;28;20020;-69
2021/12/20 08:40:47;;;;;;;11.05;2.83;;;-1.50;99.90;;;;;;5094225;28;20036;-69
2021/12/20 08:43:14;;;;;;;11.38;4.20;;;-1.50;99.90;;;;;;5092993;28;20554;-69
2021/12/20 08:45:40;;;;;;;14.82;4.05;;;-1.50;99.90;;;;;;5094094;28;20085;-69
2021/12/20 08:48:05;;;;;;;13.00;4.63;;;-1.50;99.90;;;;;;5093863;28;20020;-69
2021/12/20 08:50:31;;;;;;;10.50;3.70;;;-1.50;99.90;;;;;;5093833;28;20032;-69
2021/12/20 08:52:56;;;;;;;15.85;3.85;;;-1.40;99.90;;;;;;5093785;28;20123;-69
2021/12/20 08:55:23;;;;;;;16.02;4.07;;;-1.40;99.90;;;;;;5094306;28;20040;-69
2021/12/20 08:57:49;;;;;;;15.52;4.85;;;-1.40;99.90;;;;;;5075560;28;20020;-69
2021/12/20 09:00:21;;;;;;;22.02;5.15;;;-1.30;99.90;;;;;;5093925;28;20016;-69
2021/12/20 09:02:47;;;;;;;16.05;4.70;;;-1.30;99.90;;;;;;5093591;28;20039;-69
2021/12/20 09:05:13;;;;;;;19.02;4.65;;;-1.20;99.90;;;;;;5093529;28;20024;-69
2021/12/20 09:07:41;;;;;;;20.02;5.07;;;-1.20;99.90;;;;;;5093805;28;20486;-69
2021/12/20 09:10:08;;;;;;;27.23;5.50;;;-1.00;99.90;;;;;;5075383;28;20031;-69
2021/12/20 09:12:34;;;;;;;20.25;4.85;;;-1.00;99.90;;;;;;5093350;28;20042;-69
2021/12/20 09:14:59;;;;;;;10.68;3.83;;;-0.90;99.90;;;;;;5093730;28;20519;-69
2021/12/20 09:17:25;;;;;;;14.73;4.43;;;-0.80;99.90;;;;;;5093678;28;20044;-69
2021/12/20 09:19:51;;;;;;;24.70;4.22;;;-0.70;99.90;;;;;;5093484;28;20031;-69
2021/12/20 09:22:17;;;;;;;17.42;3.60;;;-0.60;99.90;;;;;;5093639;28;20501;-69
2021/12/20 09:24:44;;;;;;;15.05;3.72;;;-0.40;99.90;;;;;;5093508;28;20152;-69
2021/12/20 09:27:10;;;;;;;9.23;3.53;;;-0.40;99.90;;;;;;5093464;28;20024;-69
2021/12/20 09:29:36;;;;;;;18.65;4.03;;;-0.30;99.90;;;;;;5093529;28;20357;-69
2021/12/20 09:32:03;;;;;;;16.30;4.07;;;-0.40;99.90;;;;;;5093241;28;20106;-69
2021/12/20 09:34:29;;;;;;;22.60;3.90;;;-0.30;99.90;;;;;;5093110;28;20036;-69
2021/12/20 09:36:55;;;;;;;15.35;3.67;;;-0.20;99.90;;;;;;5093173;28;20031;-69
2021/12/20 09:39:22;;;;;;;15.15;3.67;;;-0.20;99.90;;;;;;5093230;28;20392;-69
2021/12/20 09:44:15;;;;;;;10.15;3.60;;;0.00;99.90;;;;;;5093364;28;20024;-69
2021/12/20 09:46:41;;;;;;;11.02;3.22;;;0.10;99.90;;;;;;5093050;28;20491;-69
2021/12/20 09:49:08;;;;;;;12.65;3.42;;;0.20;99.90;;;;;;5093669;28;20024;-69
2021/12/20 09:51:34;;;;;;;13.32;3.80;;;0.30;99.90;;;;;;5093078;28;20368;-69
2021/12/20 09:54:00;;;;;;;15.02;3.58;;;0.30;99.90;;;;;;5094889;28;20085;-69
2021/12/20 09:56:28;;;;;;;13.60;3.30;;;0.40;99.90;;;;;;5097138;28;20131;-69
2021/12/20 09:58:57;;;;;;;17.77;3.25;;;0.50;99.90;;;;;;5097070;28;20137;-69
2021/12/20 10:01:24;;;;;;;14.30;3.17;;;0.60;99.90;;;;;;5097273;28;20024;-70
2021/12/20 10:03:52;;;;;;;13.15;3.90;;;0.70;99.90;;;;;;5097186;28;20028;-70
2021/12/20 10:06:19;;;;;;;17.60;4.93;;;0.80;99.90;;;;;;5097121;28;20052;-69
2021/12/20 10:08:52;;;;;;;16.83;4.90;;;0.80;99.90;;;;;;5097220;28;20028;-69
2021/12/20 10:11:20;;;;;;;27.50;5.78;;;0.90;99.90;;;;;;5087481;28;20066;-69
2021/12/20 10:13:46;;;;;;;13.68;5.38;;;1.00;99.90;;;;;;5078983;28;20025;-69
2021/12/20 10:16:20;;;;;;;13.95;4.78;;;1.00;99.90;;;;;;5076497;28;20078;-69
2021/12/20 10:18:47;;;;;;;16.60;4.43;;;1.00;99.90;;;;;;5080563;28;20107;-69
2021/12/20 10:21:12;;;;;;;14.77;4.55;;;1.10;99.90;;;;;;5096753;28;20028;-69
2021/12/20 10:23:44;;;;;;;16.45;3.40;;;1.10;99.90;;;;;;5096592;28;20028;-69
2021/12/20 10:26:18;;;;;;;15.65;3.30;;;1.20;99.90;;;;;;5086712;28;20108;-69
2021/12/20 10:28:44;;;;;;;13.73;3.50;;;1.10;99.90;;;;;;5076469;28;20046;-69
2021/12/20 10:31:23;;;;;;;18.17;4.18;;;1.20;99.90;;;;;;5076489;28;20021;-69
2021/12/20 10:33:55;;;;;;;14.35;3.50;;;1.20;99.90;;;;;;5076425;28;20025;-69
2021/12/20 10:36:21;;;;;;;9.43;3.25;;;1.20;99.90;;;;;;5076437;28;20025;-69
2021/12/20 10:38:57;;;;;;;9.13;3.50;;;1.30;99.90;;;;;;5076356;28;20036;-69
2021/12/20 10:41:35;;;;;;;11.57;3.55;;;1.30;99.90;;;;;;5076079;28;20035;-69
2021/12/20 10:44:14;;;;;;;11.77;2.92;;;1.30;99.90;;;;;;5082133;28;20029;-69
2021/12/20 10:46:46;;;;;;;14.85;3.20;;;1.40;99.90;;;;;;5075886;28;20024;-69
2021/12/20 10:49:14;;;;;;;16.75;3.10;;;1.40;99.90;;;;;;5078468;28;20021;-69
2021/12/20 10:51:44;;;;;;;10.23;2.97;;;1.50;99.90;;;;;;5076126;28;20468;-69
2021/12/20 10:54:15;;;;;;;21.63;3.20;;;1.40;99.90;;;;;;5078028;28;20025;-69
2021/12/20 10:57:01;;;;;;;11.85;2.83;;;1.60;99.90;;;;;;5076057;28;20040;-69
2021/12/20 10:59:30;;;;;;;4.95;2.10;;;1.70;99.90;;;;;;5088537;28;20043;-69
2021/12/20 11:05:08;;;;;;;11.55;3.30;;;1.70;99.90;;;;;;5097991;28;20039;-69
2021/12/20 11:10:03;;;;;;;10.45;2.53;;;1.80;99.90;;;;;;5086305;28;20472;-69
2021/12/20 11:12:31;;;;;;;13.30;2.83;;;1.90;99.90;;;;;;5075729;28;20028;-69
2021/12/20 11:15:11;;;;;;;13.13;2.50;;;1.90;99.90;;;;;;5089633;28;20016;-69
2021/12/20 11:17:44;;;;;;;9.80;1.95;;;2.00;99.90;;;;;;5095848;28;20028;-69
2021/12/20 11:20:16;;;;;;;17.25;3.17;;;2.00;99.90;;;;;;5096190;28;20153;-69
2021/12/20 11:22:41;;;;;;;16.70;2.83;;;2.10;99.90;;;;;;5093991;28;20458;-69
2021/12/20 11:25:09;;;;;;;13.20;2.97;;;2.10;99.90;;;;;;5077330;28;20111;-69
2021/12/20 11:27:38;;;;;;;11.60;2.60;;;2.10;99.90;;;;;;5074825;28;20146;-69
2021/12/20 11:30:07;;;;;;;12.95;2.78;;;2.10;99.90;;;;;;5091141;28;20020;-69
2021/12/20 11:32:32;;;;;;;12.15;2.35;;;2.20;99.90;;;;;;5095257;28;20028;-69
2021/12/20 11:34:58;;;;;;;18.15;2.97;;;2.30;99.90;;;;;;5095383;28;20016;-69
2021/12/20 11:37:26;;;;;;;10.88;2.60;;;2.40;99.90;;;;;;5095508;28;20099;-69
2021/12/20 11:39:54;;;;;;;8.50;2.50;;;2.50;99.90;;;;;;5087899;28;20040;-69
2021/12/20 11:42:20;;;;;;;11.70;2.72;;;2.60;99.90;;;;;;5075221;28;20060;-69
2021/12/20 11:44:48;;;;;;;8.15;2.28;;;2.70;99.90;;;;;;5074827;28;20025;-69
2021/12/20 11:47:23;;;;;;;5.72;2.72;;;2.70;99.90;;;;;;5074665;28;20028;-69
2021/12/20 11:50:02;;;;;;;11.27;2.60;;;2.80;99.90;;;;;;5075133;28;20063;-69
2021/12/20 11:52:40;;;;;;;8.18;2.28;;;2.80;99.90;;;;;;5077306;28;20087;-69
2021/12/20 11:55:23;;;;;;;10.88;3.63;;;2.90;99.90;;;;;;5188813;22;20479;-72
2021/12/20 11:57:57;;;;;;;8.75;2.95;;;2.90;99.90;;;;;;5094901;28;20024;-72
2021/12/20 12:00:22;;;;;;;7.72;2.65;;;2.90;99.90;;;;;;5092682;28;20039;-72
2021/12/20 12:02:58;;;;;;;6.00;2.05;;;2.90;99.90;;;;;;5095038;28;20091;-72
2021/12/20 12:05:32;;;;;;;13.88;2.83;;;2.90;99.90;;;;;;5087906;28;20501;-72
2021/12/20 12:08:32;;;;;;;13.88;3.08;;;3.00;99.90;;;;;;5094697;28;20490;-72
2021/12/20 12:11:19;;;;;;;4.03;1.95;;;3.10;99.90;;;;;;5080657;28;20027;-72
2021/12/20 12:13:59;;;;;;;10.02;2.90;;;3.20;99.90;;;;;;5080453;28;20429;-72
2021/12/20 12:16:46;;;;;;;10.00;2.28;;;3.20;99.90;;;;;;5094976;28;20022;-72
2021/12/20 12:19:12;;;;;;;9.32;2.17;;;3.30;99.90;;;;;;5072764;28;20105;-72
2021/12/20 12:21:41;;;;;;;10.30;2.40;;;3.30;99.90;;;;;;5074402;28;20561;-72
2021/12/20 12:24:13;;;;;;;17.67;2.17;;;3.40;99.90;;;;;;5073961;28;20112;-72
2021/12/20 12:26:41;;;;;;;10.27;1.98;;;3.40;99.90;;;;;;5056038;28;20025;-72
2021/12/20 12:29:23;;;;;;;11.50;2.42;;;3.50;99.90;;;;;;5056005;28;20391;-72
2021/12/20 12:31:57;;;;;;;23.00;2.38;;;3.60;99.90;;;;;;5074337;28;20024;-72
2021/12/20 12:34:25;;;;;;;7.68;2.17;;;3.80;99.90;;;;;;5076198;28;20056;-73
2021/12/20 12:37:22;;;;;;;8.27;2.05;;;3.90;99.90;;;;;;5073822;28;20108;-72
2021/12/20 12:39:48;;;;;;;10.35;2.28;;;4.20;99.90;;;;;;5083238;28;20046;-72
2021/12/20 12:42:13;;;;;;;9.27;2.10;;;4.50;99.90;;;;;;5093996;28;20485;-72
2021/12/20 12:44:49;;;;;;;9.70;2.53;;;4.60;99.90;;;;;;5093843;28;20034;-73
2021/12/20 12:47:15;;;;;;;14.90;2.65;;;4.60;99.90;;;;;;5094168;28;20472;-72
2021/12/20 12:49:47;;;;;;;8.57;1.88;;;4.60;99.90;;;;;;5072304;28;20031;-73
2021/12/20 12:52:16;;;;;;;8.07;2.40;;;4.60;99.90;;;;;;5073894;28;20021;-72
2021/12/20 12:54:45;;;;;;;10.10;2.10;;;4.50;99.90;;;;;;5075656;28;20033;-73
2021/12/20 12:57:10;;;;;;;14.50;2.67;;;4.70;99.90;;;;;;5073454;28;20032;-72
2021/12/20 12:59:54;;;;;;;11.60;2.38;;;5.00;99.90;;;;;;5075561;28;20028;-73
2021/12/20 13:02:23;;;;;;;6.45;3.15;;;5.10;99.90;;;;;;5073813;28;20024;-73